createdAt,value
2023-03-25T00:02:05.925Z,14.13
2023-03-25T00:04:39.522Z,14.08
2023-03-25T00:07:08.160Z,14.05
2023-03-25T00:09:36.644Z,14.07
2023-03-25T00:12:06.218Z,14.08
2023-03-25T00:14:34.840Z,14.10
2023-03-25T00:17:07.072Z,14.10
2023-03-25T00:19:35.915Z,14.10
2023-03-25T00:22:04.398Z,14.09
2023-03-25T00:24:33.378Z,14.10
2023-03-25T00:27:01.762Z,14.10
2023-03-25T00:29:35.770Z,14.11
2023-03-25T00:32:05.700Z,14.12
2023-03-25T00:34:35.503Z,14.12
2023-03-25T00:37:06.031Z,14.12
2023-03-25T00:39:36.259Z,14.13
2023-03-25T00:42:11.399Z,14.13
2023-03-25T00:44:41.198Z,14.13
2023-03-25T00:47:11.958Z,14.15
2023-03-25T00:49:40.428Z,14.15
2023-03-25T00:52:08.809Z,14.16
2023-03-25T00:54:38.416Z,14.17
2023-03-25T00:57:06.851Z,14.19
2023-03-25T00:59:36.510Z,14.20
2023-03-25T01:02:05.408Z,14.21
2023-03-25T01:04:40.048Z,14.22
2023-03-25T01:07:09.885Z,14.23
2023-03-25T01:09:39.764Z,14.22
2023-03-25T01:12:08.549Z,14.21
2023-03-25T01:14:36.938Z,14.21
2023-03-25T01:17:05.515Z,14.23
2023-03-25T01:19:34.717Z,14.24
2023-03-25T01:22:03.607Z,14.23
2023-03-25T01:24:32.822Z,14.21
2023-03-25T01:27:01.396Z,14.19
2023-03-25T01:29:30.906Z,14.15
2023-03-25T01:31:59.396Z,14.12
2023-03-25T01:34:27.970Z,14.09
2023-03-25T01:36:56.662Z,14.08
2023-03-25T01:39:25.960Z,14.07
2023-03-25T01:41:55.560Z,14.04
2023-03-25T01:44:24.470Z,14.05
2023-03-25T01:46:54.512Z,14.03
2023-03-25T01:49:30.445Z,14.00
2023-03-25T01:52:06.950Z,13.96
2023-03-25T01:54:35.496Z,13.94
2023-03-25T01:57:05.568Z,13.91
2023-03-25T01:59:34.102Z,13.89
2023-03-25T02:02:04.140Z,13.87
2023-03-25T02:04:39.394Z,13.84
2023-03-25T02:07:08.865Z,13.81
2023-03-25T02:09:40.328Z,13.79
2023-03-25T02:12:09.144Z,13.78
2023-03-25T02:14:39.366Z,13.78
2023-03-25T02:17:15.805Z,13.77
2023-03-25T02:20:14.088Z,13.74
2023-03-25T02:23:11.042Z,13.73
2023-03-25T02:25:56.624Z,13.70
2023-03-25T02:28:47.528Z,13.65
2023-03-25T02:31:38.309Z,13.60
2023-03-25T02:34:43.378Z,13.56
2023-03-25T02:37:17.615Z,13.52
2023-03-25T02:39:52.546Z,13.51
2023-03-25T02:42:37.608Z,13.51
2023-03-25T02:45:13.766Z,13.51
2023-03-25T02:47:46.780Z,13.46
2023-03-25T02:50:22.409Z,13.42
2023-03-25T02:52:52.321Z,13.36
2023-03-25T02:55:23.060Z,13.30
2023-03-25T02:57:53.311Z,13.23
2023-03-25T03:00:28.772Z,13.13
2023-03-25T03:03:00.423Z,13.06
2023-03-25T03:05:35.023Z,13.01
2023-03-25T03:08:15.078Z,12.98
2023-03-25T03:10:45.393Z,12.94
2023-03-25T03:13:49.417Z,12.86
2023-03-25T03:16:48.714Z,12.80
2023-03-25T03:19:34.563Z,12.80
2023-03-25T03:22:43.854Z,12.81
2023-03-25T03:25:23.084Z,12.82
2023-03-25T03:28:16.966Z,12.82
2023-03-25T03:30:58.676Z,12.83
2023-03-25T03:33:33.315Z,12.83
2023-03-25T03:36:04.668Z,12.84
2023-03-25T03:38:37.319Z,12.83
2023-03-25T03:44:14.363Z,12.84
2023-03-25T03:46:48.544Z,12.84
2023-03-25T03:49:22.346Z,12.82
2023-03-25T03:51:59.153Z,12.80
2023-03-25T03:54:30.167Z,12.78
2023-03-25T03:57:03.393Z,12.74
2023-03-25T04:00:14.652Z,12.73
2023-03-25T04:02:54.272Z,12.69
2023-03-25T04:05:23.195Z,12.61
2023-03-25T04:08:17.476Z,12.57
2023-03-25T04:10:52.946Z,12.53
2023-03-25T04:13:22.016Z,12.51
2023-03-25T04:15:52.111Z,12.48
2023-03-25T04:18:23.692Z,12.47
2023-03-25T04:20:52.086Z,12.48
2023-03-25T04:23:21.580Z,12.46
2023-03-25T04:25:53.673Z,12.46
2023-03-25T04:28:28.069Z,12.46
2023-03-25T04:30:57.791Z,12.45
2023-03-25T04:33:26.471Z,12.49
2023-03-25T04:35:55.020Z,12.47
2023-03-25T04:38:23.640Z,12.46
2023-03-25T04:40:52.563Z,12.51
2023-03-25T04:43:21.221Z,12.53
2023-03-25T04:45:55.021Z,12.55
2023-03-25T04:48:26.204Z,12.59
2023-03-25T04:50:56.192Z,12.57
2023-03-25T04:53:26.124Z,12.62
2023-03-25T04:55:55.328Z,12.63
2023-03-25T04:58:23.891Z,12.64
2023-03-25T05:00:53.102Z,12.66
2023-03-25T05:03:24.878Z,12.68
2023-03-25T05:05:53.948Z,12.70
2023-03-25T05:08:23.564Z,12.69
2023-03-25T05:10:52.862Z,12.69
2023-03-25T05:13:24.623Z,12.69
2023-03-25T05:15:54.250Z,12.69
2023-03-25T05:18:22.814Z,12.69
2023-03-25T05:21:01.131Z,12.69
2023-03-25T05:23:31.867Z,12.69
2023-03-25T05:26:00.254Z,12.71
2023-03-25T05:28:31.844Z,12.71
2023-03-25T05:31:00.303Z,12.72
2023-03-25T05:33:29.792Z,12.74
2023-03-25T05:35:58.206Z,12.79
2023-03-25T05:38:26.962Z,12.83
2023-03-25T05:40:55.343Z,12.88
2023-03-25T05:43:24.848Z,12.93
2023-03-25T05:45:53.776Z,12.97
2023-03-25T05:48:23.249Z,12.99
2023-03-25T05:50:51.633Z,13.01
2023-03-25T05:53:21.033Z,13.06
2023-03-25T05:55:52.396Z,13.12
2023-03-25T05:58:25.400Z,13.17
2023-03-25T06:00:54.988Z,13.18
2023-03-25T06:03:26.445Z,13.27
2023-03-25T06:05:56.968Z,13.32
2023-03-25T06:08:26.388Z,13.36
2023-03-25T06:11:01.101Z,13.40
2023-03-25T06:13:29.899Z,13.42
2023-03-25T06:16:00.321Z,13.45
2023-03-25T06:18:34.847Z,13.47
2023-03-25T06:21:04.453Z,13.47
2023-03-25T06:23:35.808Z,13.48
2023-03-25T06:26:04.602Z,13.50
2023-03-25T06:28:34.708Z,13.52
2023-03-25T06:31:27.980Z,13.54
2023-03-25T06:33:56.985Z,13.56
2023-03-25T06:36:27.714Z,13.57
2023-03-25T06:38:58.665Z,13.60
2023-03-25T06:41:36.110Z,13.62
2023-03-25T06:44:17.127Z,13.64
2023-03-25T06:47:12.035Z,13.68
2023-03-25T06:49:50.954Z,13.71
2023-03-25T06:52:19.672Z,13.73
2023-03-25T06:54:51.507Z,13.76
2023-03-25T06:57:20.001Z,13.79
2023-03-25T06:59:49.928Z,13.81
2023-03-25T07:02:18.391Z,13.81
2023-03-25T07:04:47.029Z,13.79
2023-03-25T07:07:16.286Z,13.78
2023-03-25T07:09:46.813Z,13.77
2023-03-25T07:12:15.189Z,13.76
2023-03-25T07:14:57.499Z,13.75
2023-03-25T07:17:26.030Z,13.73
2023-03-25T07:19:58.369Z,13.70
2023-03-25T07:22:28.070Z,13.67
2023-03-25T07:24:58.604Z,13.66
2023-03-25T07:27:29.235Z,13.66
2023-03-25T07:30:04.927Z,13.67
2023-03-25T07:32:37.273Z,13.68
2023-03-25T07:35:06.884Z,13.71
2023-03-25T07:37:35.681Z,13.77
2023-03-25T07:40:04.859Z,13.83
2023-03-25T07:42:33.753Z,13.89
2023-03-25T07:45:44.354Z,13.93
2023-03-25T07:48:17.108Z,13.96
2023-03-25T07:50:46.322Z,13.99
2023-03-25T07:53:16.536Z,14.01
2023-03-25T07:55:51.225Z,14.04
2023-03-25T07:58:19.965Z,14.05
2023-03-25T08:00:49.353Z,14.05
2023-03-25T08:03:18.402Z,14.05
2023-03-25T08:05:49.757Z,14.06
2023-03-25T08:08:19.922Z,14.08
2023-03-25T08:10:48.920Z,14.09
2023-03-25T08:13:20.166Z,14.10
2023-03-25T08:15:51.058Z,14.10
2023-03-25T08:18:20.205Z,14.10
2023-03-25T08:20:51.255Z,14.12
2023-03-25T08:23:20.365Z,14.14
2023-03-25T08:25:49.789Z,14.15
2023-03-25T08:28:23.728Z,14.18
2023-03-25T08:30:55.837Z,14.20
2023-03-25T08:33:39.871Z,14.21
2023-03-25T08:36:10.753Z,14.20
2023-03-25T08:38:39.308Z,14.21
2023-03-25T08:41:08.144Z,14.22
2023-03-25T08:43:36.582Z,14.24
2023-03-25T08:46:08.250Z,14.27
2023-03-25T08:48:38.042Z,14.30
2023-03-25T08:51:08.171Z,14.35
2023-03-25T08:53:37.987Z,14.40
2023-03-25T08:56:07.605Z,14.45
2023-03-25T08:58:38.426Z,14.51
2023-03-25T09:01:07.419Z,14.57
2023-03-25T09:03:38.876Z,14.64
2023-03-25T09:06:08.879Z,14.69
2023-03-25T09:08:37.591Z,14.72
2023-03-25T09:11:07.523Z,14.73
2023-03-25T09:13:40.080Z,14.73
2023-03-25T09:16:09.858Z,14.72
2023-03-25T09:18:45.156Z,14.74
2023-03-25T09:21:13.825Z,14.76
2023-03-25T09:23:43.570Z,14.79
2023-03-25T09:26:12.427Z,14.81
2023-03-25T09:28:41.213Z,14.83
2023-03-25T09:31:10.551Z,14.86
2023-03-25T09:33:39.112Z,14.81
2023-03-25T09:36:08.460Z,14.87
2023-03-25T09:38:40.163Z,14.88
2023-03-25T09:41:48.176Z,14.84
2023-03-25T09:44:27.308Z,14.91
2023-03-25T09:46:56.017Z,14.99
2023-03-25T09:49:26.031Z,15.04
2023-03-25T09:51:59.823Z,15.10
2023-03-25T09:54:36.392Z,15.17
2023-03-25T09:57:07.402Z,15.23
2023-03-25T09:59:49.405Z,15.29
2023-03-25T10:02:40.048Z,15.36
2023-03-25T10:05:43.083Z,15.43
2023-03-25T10:08:45.106Z,15.50
2023-03-25T10:11:32.636Z,15.58
2023-03-25T10:14:23.238Z,15.63
2023-03-25T10:16:58.275Z,15.66
2023-03-25T10:19:42.425Z,15.69
2023-03-25T10:22:36.925Z,15.66
2023-03-25T10:25:10.316Z,15.73
2023-03-25T10:27:41.910Z,15.74
2023-03-25T10:30:18.836Z,15.76
2023-03-25T10:32:59.391Z,15.79
2023-03-25T10:35:32.646Z,15.81
2023-03-25T10:38:14.471Z,15.82
2023-03-25T10:40:50.548Z,15.85
2023-03-25T10:43:31.554Z,15.86
2023-03-25T10:46:13.434Z,15.87
2023-03-25T10:48:42.341Z,15.89
2023-03-25T10:51:12.395Z,15.90
2023-03-25T10:53:49.886Z,15.95
2023-03-25T10:56:43.165Z,16.02
2023-03-25T10:59:45.602Z,16.13
2023-03-25T11:02:22.890Z,16.21
2023-03-25T11:04:59.054Z,16.24
2023-03-25T11:07:30.658Z,16.27
2023-03-25T11:10:14.857Z,16.29
2023-03-25T11:12:48.666Z,16.31
2023-03-25T11:15:29.600Z,16.30
2023-03-25T11:18:26.182Z,16.28
2023-03-25T11:21:15.048Z,16.27
2023-03-25T11:23:51.212Z,16.23
2023-03-25T11:26:24.926Z,16.21
2023-03-25T11:28:57.296Z,16.20
2023-03-25T11:31:27.554Z,16.18
2023-03-25T11:34:06.624Z,16.15
2023-03-25T11:36:57.046Z,16.04
2023-03-25T11:39:37.105Z,16.00
2023-03-25T11:42:17.076Z,15.97
2023-03-25T11:44:52.774Z,15.97
2023-03-25T11:47:26.460Z,16.01
2023-03-25T11:49:54.899Z,16.03
2023-03-25T11:52:28.304Z,16.02
2023-03-25T11:55:00.589Z,16.01
2023-03-25T11:57:36.355Z,16.01
2023-03-25T12:00:36.143Z,15.94
2023-03-25T12:03:14.756Z,15.96
2023-03-25T12:05:43.566Z,15.96
2023-03-25T12:08:15.641Z,15.97
2023-03-25T12:10:52.923Z,16.00
2023-03-25T12:13:26.828Z,16.06
2023-03-25T12:16:12.161Z,16.12
2023-03-25T12:19:19.197Z,16.16
2023-03-25T12:22:16.252Z,16.15
2023-03-25T12:24:48.727Z,16.07
2023-03-25T12:27:36.773Z,16.08
2023-03-25T12:30:15.416Z,16.07
2023-03-25T12:33:00.393Z,16.05
2023-03-25T12:35:35.728Z,16.02
2023-03-25T12:38:19.653Z,15.99
2023-03-25T12:40:51.573Z,15.99
2023-03-25T12:43:26.764Z,15.98
2023-03-25T12:46:09.601Z,15.99
2023-03-25T12:48:45.436Z,16.01
2023-03-25T12:51:17.925Z,16.05
2023-03-25T12:53:49.263Z,16.08
2023-03-25T12:56:30.002Z,16.13
2023-03-25T12:59:16.645Z,16.18
2023-03-25T13:01:54.877Z,16.26
2023-03-25T13:04:39.834Z,16.34
2023-03-25T13:07:19.784Z,16.43
2023-03-25T13:09:59.533Z,16.47
2023-03-25T13:12:32.008Z,16.46
2023-03-25T13:15:07.043Z,16.55
2023-03-25T13:18:10.680Z,16.59
2023-03-25T13:20:43.437Z,16.58
2023-03-25T13:23:14.101Z,16.58
2023-03-25T13:25:53.820Z,16.60
2023-03-25T13:28:25.730Z,16.62
2023-03-25T13:30:54.437Z,16.67
2023-03-25T13:33:25.314Z,16.75
2023-03-25T13:36:01.607Z,16.79
2023-03-25T13:38:33.851Z,16.79
2023-03-25T13:41:12.570Z,16.89
2023-03-25T13:43:47.818Z,16.97
2023-03-25T13:46:21.821Z,17.03
2023-03-25T13:49:14.073Z,17.09
2023-03-25T13:51:42.867Z,17.13
2023-03-25T13:54:22.558Z,17.11
2023-03-25T13:57:11.494Z,17.04
2023-03-25T13:59:48.781Z,16.89
2023-03-25T14:02:25.411Z,16.75
2023-03-25T14:05:29.730Z,16.58
2023-03-25T14:08:21.495Z,16.51
2023-03-25T14:11:09.952Z,16.43
2023-03-25T14:13:42.121Z,16.38
2023-03-25T14:16:18.264Z,16.36
2023-03-25T14:18:49.241Z,16.33
2023-03-25T14:21:27.542Z,16.30
2023-03-25T14:24:05.045Z,16.26
2023-03-25T14:26:34.859Z,16.23
2023-03-25T14:29:22.691Z,16.19
2023-03-25T14:32:01.835Z,16.14
2023-03-25T14:34:30.725Z,16.09
2023-03-25T14:36:59.927Z,16.04
2023-03-25T14:39:28.447Z,16.01
2023-03-25T14:42:11.550Z,16.01
2023-03-25T14:44:50.030Z,16.02
2023-03-25T14:47:37.092Z,16.01
2023-03-25T14:50:20.936Z,15.98
2023-03-25T14:52:52.103Z,15.92
2023-03-25T14:55:22.111Z,15.87
2023-03-25T14:57:52.613Z,15.86
2023-03-25T15:00:29.412Z,15.79
2023-03-25T15:03:02.017Z,15.75
2023-03-25T15:05:32.221Z,15.76
2023-03-25T15:08:09.718Z,15.79
2023-03-25T15:10:43.248Z,15.78
2023-03-25T15:13:24.996Z,15.77
2023-03-25T15:16:00.981Z,15.75
2023-03-25T15:18:35.998Z,15.72
2023-03-25T15:21:08.059Z,15.68
2023-03-25T15:23:47.716Z,15.63
2023-03-25T15:26:32.479Z,15.58
2023-03-25T15:29:13.038Z,15.54
2023-03-25T15:32:03.228Z,15.51
2023-03-25T15:34:41.337Z,15.48
2023-03-25T15:37:46.544Z,15.45
2023-03-25T15:40:37.601Z,15.45
2023-03-25T15:43:31.496Z,15.41
2023-03-25T15:46:29.048Z,15.40
2023-03-25T15:49:06.643Z,15.38
2023-03-25T15:51:47.209Z,15.37
2023-03-25T15:54:42.382Z,15.39
2023-03-25T15:57:23.503Z,15.39
2023-03-25T16:01:42.030Z,15.41
2023-03-25T16:04:42.609Z,15.43
2023-03-25T16:07:13.147Z,15.46
2023-03-25T16:09:48.321Z,15.46
2023-03-25T16:12:21.886Z,15.46
2023-03-25T16:14:51.355Z,15.44
2023-03-25T16:17:22.349Z,15.37
2023-03-25T16:19:55.307Z,15.31
2023-03-25T16:22:33.024Z,15.28
2023-03-25T16:25:04.483Z,15.25
2023-03-25T16:27:37.829Z,15.20
2023-03-25T16:30:26.430Z,15.11
2023-03-25T16:33:05.767Z,15.02
2023-03-25T16:35:52.913Z,14.98
2023-03-25T16:38:23.330Z,14.97
2023-03-25T16:40:52.394Z,14.96
2023-03-25T16:43:24.386Z,14.97
2023-03-25T16:45:56.179Z,14.90
2023-03-25T16:48:33.757Z,14.85
2023-03-25T16:51:22.092Z,14.77
2023-03-25T16:53:53.858Z,14.67
2023-03-25T16:56:27.963Z,14.58
2023-03-25T16:59:07.919Z,14.51
2023-03-25T17:01:39.595Z,14.46
2023-03-25T17:04:19.125Z,14.40
2023-03-25T17:07:02.088Z,14.33
2023-03-25T17:09:34.544Z,14.31
2023-03-25T17:12:08.042Z,14.29
2023-03-25T17:14:38.182Z,14.26
2023-03-25T17:17:49.052Z,14.22
2023-03-25T17:20:23.144Z,14.15
2023-03-25T17:23:18.349Z,14.06
2023-03-25T17:25:53.707Z,14.08
2023-03-25T17:28:31.290Z,14.04
2023-03-25T17:30:59.908Z,14.00
2023-03-25T17:33:36.349Z,13.95
2023-03-25T17:36:09.247Z,13.89
2023-03-25T17:38:48.014Z,13.84
2023-03-25T17:41:17.852Z,13.89
2023-03-25T17:43:51.049Z,14.01
2023-03-25T17:46:27.239Z,14.10
2023-03-25T17:48:57.869Z,14.08
2023-03-25T17:51:27.865Z,14.06
2023-03-25T17:53:56.483Z,14.12
2023-03-25T17:56:26.899Z,14.11
2023-03-25T17:59:07.589Z,14.08
2023-03-25T18:01:37.951Z,14.12
2023-03-25T18:04:07.205Z,14.21
2023-03-25T18:06:37.947Z,14.28
2023-03-25T18:09:21.194Z,14.33
2023-03-25T18:11:54.771Z,14.36
2023-03-25T18:14:25.513Z,14.36
2023-03-25T18:16:54.397Z,14.36
2023-03-25T18:19:26.361Z,14.36
2023-03-25T18:21:55.312Z,14.42
2023-03-25T18:24:24.559Z,14.46
2023-03-25T18:26:53.040Z,14.45
2023-03-25T18:29:24.512Z,14.45
2023-03-25T18:31:53.188Z,14.45
2023-03-25T18:34:23.943Z,14.43
2023-03-25T18:36:54.271Z,14.38
2023-03-25T18:39:24.474Z,14.39
2023-03-25T18:41:53.060Z,14.42
2023-03-25T18:44:21.653Z,14.43
2023-03-25T18:46:51.565Z,14.39
2023-03-25T18:49:20.600Z,14.32
2023-03-25T18:51:49.245Z,14.29
2023-03-25T18:54:17.948Z,14.26
2023-03-25T18:56:46.757Z,14.26
2023-03-25T18:59:20.945Z,14.25
2023-03-25T19:01:49.645Z,14.23
2023-03-25T19:04:18.522Z,14.19
2023-03-25T19:06:47.109Z,14.15
2023-03-25T19:09:18.440Z,14.16
2023-03-25T19:11:47.552Z,14.15
2023-03-25T19:14:16.594Z,14.17
2023-03-25T19:16:57.162Z,14.20
2023-03-25T19:19:31.230Z,14.19
2023-03-25T19:22:00.942Z,14.16
2023-03-25T19:24:29.747Z,14.16
2023-03-25T19:26:59.139Z,14.17
2023-03-25T19:29:28.041Z,14.16
2023-03-25T19:31:56.625Z,14.15
2023-03-25T19:34:25.511Z,14.08
2023-03-25T19:37:02.774Z,14.02
2023-03-25T19:39:31.897Z,13.98
2023-03-25T19:42:01.104Z,13.93
2023-03-25T19:44:30.194Z,13.90
2023-03-25T19:47:01.758Z,13.85
2023-03-25T19:49:39.419Z,13.72
2023-03-25T19:52:08.753Z,13.57
2023-03-25T19:54:40.827Z,13.43
2023-03-25T19:57:10.476Z,13.36
2023-03-25T19:59:45.068Z,13.35
2023-03-25T20:02:15.842Z,13.33
2023-03-25T20:04:44.902Z,13.30
2023-03-25T20:07:20.645Z,13.24
2023-03-25T20:09:49.524Z,13.26
2023-03-25T20:12:18.133Z,13.24
2023-03-25T20:14:47.330Z,13.20
2023-03-25T20:17:17.451Z,13.13
2023-03-25T20:19:45.836Z,13.09
2023-03-25T20:22:24.125Z,13.11
2023-03-25T20:24:53.144Z,13.10
2023-03-25T20:27:21.723Z,13.06
2023-03-25T20:29:50.104Z,13.05
2023-03-25T20:32:21.407Z,13.10
2023-03-25T20:34:52.655Z,13.11
2023-03-25T20:37:21.288Z,13.07
2023-03-25T20:39:50.924Z,13.02
2023-03-25T20:42:19.487Z,12.93
2023-03-25T20:44:47.997Z,13.02
2023-03-25T20:47:16.549Z,13.03
2023-03-25T20:49:44.932Z,13.01
2023-03-25T20:52:14.443Z,13.02
2023-03-25T20:54:44.375Z,13.05
2023-03-25T20:57:12.866Z,13.12
2023-03-25T20:59:42.963Z,13.15
2023-03-25T21:02:11.883Z,13.13
2023-03-25T21:04:40.442Z,13.12
2023-03-25T21:07:10.574Z,13.15
2023-03-25T21:09:38.941Z,13.21
2023-03-25T21:12:07.540Z,13.17
2023-03-25T21:14:37.865Z,13.14
2023-03-25T21:17:06.861Z,13.18
2023-03-25T21:19:38.814Z,13.21
2023-03-25T21:22:07.401Z,13.25
2023-03-25T21:24:37.009Z,13.34
2023-03-25T21:27:05.492Z,13.35
2023-03-25T21:29:34.385Z,13.27
2023-03-25T21:32:03.154Z,13.26
2023-03-25T21:34:32.887Z,13.23
2023-03-25T21:37:03.931Z,13.17
2023-03-25T21:39:32.927Z,13.05
2023-03-25T21:42:09.769Z,13.01
2023-03-25T21:44:44.135Z,12.97
2023-03-25T21:47:14.667Z,12.92
2023-03-25T21:49:43.038Z,12.87
2023-03-25T21:52:13.240Z,12.96
2023-03-25T21:54:43.723Z,12.93
2023-03-25T21:57:12.638Z,12.84
2023-03-25T21:59:40.964Z,12.80
2023-03-25T22:02:14.592Z,12.81
2023-03-25T22:04:43.146Z,12.89
2023-03-25T22:07:11.629Z,12.93
2023-03-25T22:09:40.946Z,12.97
2023-03-25T22:12:09.722Z,12.93
2023-03-25T22:14:39.944Z,12.90
2023-03-25T22:17:13.274Z,12.93
2023-03-25T22:19:42.746Z,12.95
2023-03-25T22:22:19.357Z,12.91
2023-03-25T22:24:49.669Z,12.90
2023-03-25T22:27:18.233Z,12.90
2023-03-25T22:29:50.810Z,12.90
2023-03-25T22:32:19.703Z,12.95
2023-03-25T22:34:48.082Z,13.00
2023-03-25T22:37:16.666Z,13.00
2023-03-25T22:39:44.947Z,13.01
2023-03-25T22:42:13.635Z,13.01
2023-03-25T22:44:45.007Z,12.94
2023-03-25T22:47:13.671Z,12.88
2023-03-25T22:49:42.155Z,12.84
2023-03-25T22:52:11.355Z,12.78
2023-03-25T22:54:40.074Z,12.68
2023-03-25T22:57:08.918Z,12.58
2023-03-25T22:59:39.574Z,12.57
2023-03-25T23:02:08.053Z,12.52
2023-03-25T23:04:38.287Z,12.44
2023-03-25T23:07:08.612Z,12.43
2023-03-25T23:09:44.217Z,12.36
2023-03-25T23:12:17.562Z,12.36
2023-03-25T23:14:50.140Z,12.36
2023-03-25T23:17:20.686Z,12.29
2023-03-25T23:19:49.400Z,12.23
2023-03-25T23:22:18.153Z,12.22
2023-03-25T23:24:46.727Z,12.18
2023-03-25T23:27:15.531Z,12.13
2023-03-25T23:29:45.259Z,12.08
2023-03-25T23:32:14.957Z,12.09
2023-03-25T23:34:43.847Z,12.09
2023-03-25T23:37:12.655Z,12.09
2023-03-25T23:39:42.358Z,12.04
2023-03-25T23:42:11.654Z,12.04
2023-03-25T23:44:40.060Z,12.03
2023-03-25T23:47:08.365Z,11.97
2023-03-25T23:49:38.689Z,11.87
2023-03-25T23:52:12.648Z,11.83
2023-03-25T23:54:42.359Z,11.82
2023-03-25T23:57:11.186Z,11.75
2023-03-25T23:59:40.970Z,11.68
